Atlanta, IL

8:46 PM CST on December 17, 2014 (GMT -0600)
Greater Peoria Regional | Change Station
CLOSE
Current Station
Airport
Location: Peoria,
Elevation: 663 ft
Nearby Weather Stations

Elev 663 ft 40.67 °N, 89.68 °W | Updated 52 minutes ago

Overcast
Overcast
24 °F
Feels Like 24 °F
N
0
Wind Variable Wind from North

Today
High -- | Low -- °F
--% Chance of Precip.
Yesterday
High -- | Low -- °F
Precip. -- in
7:13 AM 4:32 PM
Waning Crescent, 18% visible
Pressure 30.32 in
Visibility 10.0 miles
Clouds Scattered Clouds 2700 ft
Dew Point 18 °F
Humidity 77%
Rainfall 0.00 in
Snow Depth Not available.
UV 0 out of 12
Pollen .10 out of 12
Air Quality Not available.
Flu Activity Not available.
METAR KPIA 180154Z 00000KT 10SM SCT027 M04/M08 A3029 RMK AO2 SLP267 T10441078

More Conditions Fewer Conditions

Pressure 30.32 in
Visibility 10.0 miles
Clouds Scattered Clouds 2700 ft
Dew Point 18 °F
Humidity 77%
Rainfall 0.00 in
Snow Depth Not available.
UV 0 out of 12
Pollen .10 out of 12
Air Quality Not available.
Flu Activity Not available.
METAR KPIA 180154Z 00000KT 10SM SCT027 M04/M08 A3029 RMK AO2 SLP267 T10441078

More Conditions Fewer Conditions

10-Day Weather Forecast

Almanac

Astronomy

Dec. 17, 2014 Rise Set
Actual Time
Civil Twilight
Nautical Twilight
Astronomical Twilight
Moon
Length of Visible Light
Length of Day
Tomorrow will be .
, % of the Moon is Illuminated

Today's Extremes

State Highs State Lows

Community

WunderPhotos

Upload Photos

1,778,871 photos uploaded!

WunderBlogs® & News

Nearby

Air Quality

  Air Quality AQ Index Pollutant
Not available.

Snow Depth

Station Depth Elevation

Earthquake Activity

City Distance Mag. Time & Date
Minimum magnitude displayed is 2.5.

Coastal Water Temperatures

Place Temperature

Nearby Weather Stations